Have a Safe July 4th! 

Flight Track Log - Related Links

Times and Time Zones

All times are in EDT time to prevent confusion due to time zone crossing. See the DAL1117 flight status page for this flight to view local times or setup timezone preferences in your user account.

Time Position Orientation Groundspeed Altitude Reporting Facility
EDT Latitude Longitude Course Direction KTS MPH feet Rate Location/Type
Fri 09:44:12 PM 42.2017 -83.3583 225° Southwest 144 166 1,700  Level Cleveland Center
Fri 09:45:37 PM 42.1542 -83.4233 225° Southwest 233 268 3,700 2,028 Climbing Cleveland Center
Fri 09:46:37 PM 42.1044 -83.4883 224° Southwest 249 287 6,600 2,741 Climbing Cleveland Center
Fri 09:47:33 PM 42.1089 -83.5614 275° West 251 289 9,000 2,328 Climbing Cleveland Center
Fri 09:48:33 PM 42.1506 -83.6417 305° West 261 300 11,100 1,600 Climbing Cleveland Center
Fri 09:49:33 PM 42.1981 -83.7392 303° West 279 321 12,200 1,700 Climbing Cleveland Center
Fri 09:50:33 PM 42.2533 -83.8486 304° West 314 361 14,500 1,850 Climbing Cleveland Center
Fri 09:51:33 PM 42.3006 -83.9436 304° West 339 390 15,900 1,600 Climbing Cleveland Center
Fri 09:52:33 PM 42.3597 -84.0622 304° West 360 414 17,700 2,050 Climbing Cleveland Center
Fri 09:53:33 PM 42.4186 -84.1808 304° West 376 433 20,000 1,950 Climbing Cleveland Center
Fri 09:54:33 PM 42.4308 -84.3192 277° West 368 423 21,600 1,545 Climbing Cleveland Center
Fri 09:56:51 PM 42.4383 -84.6428 272° West 383 441 25,100 1,530 Climbing Chicago Center
Fri 09:57:53 PM 42.4422 -84.8153 272° West 383 441 26,700 1,171 Climbing Chicago Center
Fri 09:58:54 PM 42.4461 -84.9628 272° West 389 448 27,500 829 Climbing Chicago Center
Fri 09:59:56 PM 42.4497 -85.1147 272° West 397 457 28,400 919 Climbing Chicago Center
Fri 10:00:58 PM 42.4528 -85.2672 272° West 405 466 29,400 927 Climbing Chicago Center
Fri 10:01:59 PM 42.4556 -85.4217 271° West 409 471 30,300 1,122 Climbing Chicago Center
Fri 10:03:01 PM 42.4581 -85.5764 271° West 410 472 31,700 1,171 Climbing Chicago Center
Fri 10:04:02 PM 42.4608 -85.7236 272° West 396 456 32,700 878 Climbing Chicago Center
Fri 10:05:04 PM 42.4631 -85.8739 271° West 397 457 33,500 629 Climbing Chicago Center
Fri 10:06:06 PM 42.4639 -86.0244 270° West 399 459 34,000 246 Climbing Chicago Center
Fri 10:07:06 PM 42.4561 -86.1758 266° West 401 461 34,000  Level Chicago Center
Fri 10:08:08 PM 42.4344 -86.3522 261° West 398 458 34,000  Level Chicago Center
Fri 10:09:09 PM 42.4153 -86.5019 260° West 403 464 34,000  Level Chicago Center
Fri 10:10:11 PM 42.3967 -86.6508 260° West 401 461 34,000  Level Chicago Center
Fri 10:11:12 PM 42.3786 -86.8003 261° West 400 460 34,000  Level Chicago Center
Fri 10:12:14 PM 42.3592 -86.9469 260° West 401 461 34,000  Level Chicago Center
Fri 10:13:15 PM 42.3381 -87.0928 259° West 398 458 34,000  Level Chicago Center
Fri 10:14:17 PM 42.3183 -87.2431 260° West 406 467 34,000  Level Chicago Center
Fri 10:15:18 PM 42.2939 -87.4206 260° West 406 467 34,000  Level Chicago Center
Fri 10:16:20 PM 42.2753 -87.5686 260° West 403 464 34,000  Level Chicago Center
Fri 10:17:21 PM 42.2536 -87.7181 259° West 408 470 34,000  Level Chicago Center
Fri 10:18:22 PM 42.2331 -87.8647 259° West 404 465 34,000  Level Chicago Center
Fri 10:19:24 PM 42.2103 -88.0122 258° West 404 465 34,000  Level Chicago Center
Fri 10:20:25 PM 42.1850 -88.1586 257° West 405 466 34,000  Level Chicago Center
Fri 10:21:27 PM 42.1583 -88.3042 256° West 404 465 34,000  Level Chicago Center
Fri 10:22:28 PM 42.1281 -88.4767 257° West 400 460 34,000  Level Chicago Center
Fri 10:23:29 PM 42.1022 -88.6200 256° West 398 458 34,000  Level Chicago Center
Fri 10:24:31 PM 42.0761 -88.7631 256° West 397 457 34,000  Level Chicago Center
Fri 10:25:32 PM 42.0503 -88.9069 256° West 399 459 34,000  Level Chicago Center
Fri 10:26:34 PM 42.0239 -89.0489 256° West 395 455 34,000  Level Chicago Center
Fri 10:27:35 PM 41.9981 -89.1906 256° West 394 453 34,000  Level Chicago Center
Fri 10:28:36 PM 41.9708 -89.3300 255° West 390 449 34,000  Level Chicago Center
Fri 10:29:37 PM 41.9403 -89.5000 256° West 392 451 34,000  Level Chicago Center
Fri 10:30:39 PM 41.9131 -89.6403 255° West 391 450 34,000 49 Level Chicago Center
Fri 10:31:40 PM 41.8867 -89.7803 256° West 391 450 34,100  Climbing Chicago Center
Fri 10:32:41 PM 41.8681 -89.9192 260° West 385 443 34,000 -49 Descending Chicago Center
Fri 10:33:42 PM 41.8575 -90.0622 264° West 388 447 34,000  Level Chicago Center
Fri 10:34:44 PM 41.8461 -90.2019 264° West 381 438 34,000  Level Chicago Center
Fri 10:35:45 PM 41.8339 -90.3428 263° West 381 438 34,000  Level Chicago Center
Fri 10:36:46 PM 41.8214 -90.4847 263° West 383 441 34,000  Level Chicago Center
Fri 10:37:48 PM 41.8069 -90.6550 264° West 385 443 34,000  Level Chicago Center
Fri 10:38:49 PM 41.7947 -90.7961 263° West 383 441 34,000  Level Chicago Center
Fri 10:39:50 PM 41.7814 -90.9378 263° West 384 442 34,000  Level Chicago Center
Fri 10:40:51 PM 41.7697 -91.0789 264° West 383 441 34,000  Level Chicago Center
Fri 10:41:52 PM 41.7564 -91.2194 263° West 382 440 34,000 98 Level Chicago Center
Fri 10:42:54 PM 41.7425 -91.3633 263° West 387 445 34,200 585 Climbing Chicago Center
Fri 10:43:55 PM 41.7275 -91.5089 262° West 394 453 35,200 836 Climbing Chicago Center
Fri 10:44:56 PM 41.7147 -91.6503 263° West 387 445 35,900 393 Climbing Chicago Center
Fri 10:45:57 PM 41.7008 -91.7908 263° West 383 441 36,000 49 Climbing Chicago Center
Fri 10:46:58 PM 41.6864 -91.9361 262° West 392 451 36,000  Level Chicago Center
Fri 10:48:00 PM 41.6686 -92.1172 263° West 410 472 36,000  Level Chicago Center
Fri 10:49:01 PM 41.6522 -92.2683 262° West 412 474 36,000  Level Chicago Center
Fri 10:50:02 PM 41.6367 -92.4200 262° West 413 475 36,000  Level Chicago Center
Fri 10:51:03 PM 41.6211 -92.5681 262° West 407 468 36,000  Level Chicago Center
Fri 10:52:04 PM 41.6058 -92.7164 262° West 406 467 36,000  Level Chicago Center
Fri 10:52:21 PM 41.6006 -92.7692 262° West 404 465 36,000  Level Minneapolis Center
Fri 10:53:22 PM 41.5836 -92.9175 261° West 406 467 36,000  Level Minneapolis Center
Fri 10:54:23 PM 41.5678 -93.0667 262° West 410 472 36,000  Level Minneapolis Center
Fri 10:55:24 PM 41.5511 -93.2169 262° West 410 472 36,000  Level Minneapolis Center
Fri 10:56:25 PM 41.5336 -93.3686 261° West 416 479 36,000  Level Minneapolis Center
Fri 10:57:26 PM 41.5169 -93.5194 262° West 416 479 36,000  Level Minneapolis Center
Fri 10:58:27 PM 41.5000 -93.6675 261° West 412 474 36,000  Level Minneapolis Center
Fri 10:59:40 PM 41.4808 -93.8456 262° West 410 472 36,000  Level Minneapolis Center
Fri 11:00:42 PM 41.4586 -94.0256 261° West 412 474 36,000  Level Minneapolis Center
Fri 11:01:43 PM 41.4406 -94.1728 261° West 409 471 36,000  Level Minneapolis Center
Fri 11:02:44 PM 41.4208 -94.3328 261° West 408 470 36,000  Level Minneapolis Center
Fri 11:03:45 PM 41.4036 -94.4814 261° West 407 468 36,000  Level Minneapolis Center
Fri 11:04:46 PM 41.3856 -94.6303 261° West 406 467 36,000  Level Minneapolis Center
Fri 11:05:47 PM 41.3669 -94.7772 260° West 404 465 36,000  Level Minneapolis Center
Fri 11:06:48 PM 41.3486 -94.9253 261° West 405 466 36,000  Level Minneapolis Center
Fri 11:07:49 PM 41.3306 -95.0664 260° West 394 453 36,000  Level Minneapolis Center
Fri 11:08:50 PM 41.3125 -95.2064 260° West 386 444 36,000  Level Minneapolis Center
Fri 11:09:51 PM 41.2939 -95.3433 260° West 377 434 36,000  Level Minneapolis Center
Fri 11:10:52 PM 41.2756 -95.4831 260° West 381 438 36,000  Level Minneapolis Center
Fri 11:11:53 PM 41.2567 -95.6206 260° West 378 435 36,000  Level Minneapolis Center
Fri 11:12:54 PM 41.2397 -95.7550 261° West 377 434 36,000  Level Minneapolis Center
Fri 11:13:55 PM 41.2214 -95.8925 260° West 378 435 36,000  Level Minneapolis Center
Fri 11:14:56 PM 41.1981 -96.0578 259° West 379 436 36,000  Level Minneapolis Center
Fri 11:15:57 PM 41.1794 -96.1961 260° West 379 436 36,000  Level Minneapolis Center
Fri 11:16:58 PM 41.1592 -96.3367 259° West 385 443 36,000  Level Minneapolis Center
Fri 11:17:59 PM 41.1431 -96.4583 260° West 381 438 36,000  Level Minneapolis Center
Fri 11:19:00 PM 41.1231 -96.5972 259° West 382 440 36,000  Level Minneapolis Center
Fri 11:20:02 PM 41.1022 -96.7369 259° West 385 443 36,000  Level Minneapolis Center
Fri 11:21:03 PM 41.0792 -96.9047 260° West 386 444 36,000  Level Minneapolis Center
Fri 11:22:04 PM 41.0578 -97.0419 258° West 382 440 36,000  Level Minneapolis Center
Fri 11:23:05 PM 41.0386 -97.1819 260° West 385 443 36,000  Level Minneapolis Center
Fri 11:24:06 PM 41.0169 -97.3208 258° West 385 443 36,000  Level Minneapolis Center
Fri 11:25:07 PM 40.9978 -97.4469 259° West 382 440 36,000  Level Minneapolis Center
Fri 11:26:08 PM 40.9775 -97.5864 259° West 384 442 36,000  Level Minneapolis Center
Fri 11:27:09 PM 40.9567 -97.7264 259° West 386 444 36,000  Level Minneapolis Center
Fri 11:28:10 PM 40.9350 -97.8661 258° West 387 445 36,000  Level Minneapolis Center
Fri 11:29:11 PM 40.9083 -98.0344 258° West 388 447 36,000  Level Minneapolis Center
Fri 11:30:12 PM 40.8867 -98.1761 259° West 391 450 36,000  Level Minneapolis Center
Fri 11:31:13 PM 40.8639 -98.3178 258° West 392 451 36,000  Level Minneapolis Center
Fri 11:32:14 PM 40.8447 -98.4383 258° West 392 451 36,000  Level Minneapolis Center
Fri 11:33:15 PM 40.8222 -98.5817 258° West 396 456 36,000  Level Minneapolis Center
Fri 11:34:16 PM 40.7947 -98.7558 258° West 403 464 36,000  Level Minneapolis Center
Fri 11:35:17 PM 40.7697 -98.9036 257° West 411 473 36,000  Level Minneapolis Center
Fri 11:36:18 PM 40.7461 -99.0500 258° West 410 472 36,000  Level Minneapolis Center
Fri 11:37:08 PM 40.7267 -99.1672 258° West 409 471 36,000  Level Denver Center
Fri 11:38:10 PM 40.7025 -99.3142 258° West 409 471 36,000  Level Denver Center
Fri 11:39:11 PM 40.6769 -99.4581 257° West 404 465 36,000  Level Denver Center
Fri 11:40:12 PM 40.6531 -99.6036 258° West 405 466 36,000  Level Denver Center
Fri 11:41:14 PM 40.6275 -99.7469 257° West 403 464 36,000  Level Denver Center
Fri 11:42:15 PM 40.6019 -99.9022 258° West 401 461 36,000  Level Denver Center
Fri 11:43:16 PM 40.5778 -100.0375 257° West 396 456 36,000  Level Denver Center
Fri 11:44:17 PM 40.5508 -100.1917 257° West 387 445 36,000  Level Denver Center
Fri 11:45:19 PM 40.5281 -100.3225 257° West 383 441 36,000  Level Denver Center
Fri 11:46:20 PM 40.5042 -100.4517 256° West 380 437 36,000  Level Denver Center
Fri 11:47:21 PM 40.4781 -100.6017 257° West 375 432 36,000  Level Denver Center
Fri 11:48:22 PM 40.4558 -100.7297 257° West 374 430 36,000  Level Denver Center
Fri 11:49:24 PM 40.4319 -100.8575 256° West 375 432 36,000  Level Denver Center
Fri 11:50:25 PM 40.4042 -101.0081 256° West 378 435 36,000  Level Denver Center
Fri 11:51:26 PM 40.3797 -101.1389 256° West 382 440 36,000  Level Denver Center
Fri 11:52:27 PM 40.3511 -101.2919 256° West 386 444 36,000  Level Denver Center
Fri 11:53:29 PM 40.3258 -101.4253 256° West 391 450 36,000  Level Denver Center
Fri 11:54:42 PM 40.2919 -101.6044 256° West 398 458 36,000  Level Denver Center
Fri 11:55:43 PM 40.2661 -101.7411 256° West 404 465 36,000  Level Denver Center
Fri 11:56:44 PM 40.2403 -101.8783 256° West 405 466 36,000  Level Denver Center
Fri 11:57:46 PM 40.2264 -102.0392 264° West 401 461 36,000  Level Denver Center
Fri 11:58:47 PM 40.2328 -102.1806 273° West 406 467 36,000  Level Denver Center
Fri 11:59:48 PM 40.2397 -102.3214 274° West 406 467 36,000  Level Denver Center
Sat 12:00:49 AM 40.2469 -102.4861 273° West 407 468 36,000  Level Denver Center
Sat 12:01:50 AM 40.2517 -102.6275 273° West 406 467 36,000  Level Denver Center
Sat 12:02:51 AM 40.2569 -102.7717 273° West 409 471 36,000  Level Denver Center
Sat 12:03:52 AM 40.2625 -102.9225 273° West 413 475 36,000  Level Denver Center
Sat 12:04:54 AM 40.2272 -103.0967 255° West 425 489 36,000  Level Denver Center
Sat 12:05:55 AM 40.1939 -103.2450 254° West 422 486 36,000  Level Denver Center
Sat 12:06:56 AM 40.1597 -103.3911 253° West 417 480 36,000  Level Denver Center
Sat 12:07:57 AM 40.1264 -103.5369 253° West 416 479 36,000  Level Denver Center
Sat 12:08:58 AM 40.0922 -103.6847 253° West 421 484 36,000  Level Denver Center
Sat 12:09:59 AM 40.0578 -103.8342 253° West 429 494 36,000  Level Denver Center
Sat 12:11:01 AM 40.0239 -103.9806 253° West 419 482 36,000  Level Denver Center
Sat 12:12:02 AM 39.9883 -104.1278 253° West 423 487 36,000  Level Denver Center
Sat 12:13:03 AM 39.9533 -104.2742 253° West 421 484 36,000  Level Denver Center
Sat 12:14:04 AM 39.9186 -104.4169 252° West 413 475 36,000  Level Denver Center
Sat 12:15:05 AM 39.8842 -104.5603 253° West 412 474 36,000  Level Denver Center
Sat 12:16:06 AM 39.8547 -104.6786 252° West 410 472 36,000  Level Denver Center
Sat 12:17:07 AM 39.8139 -104.8464 252° West 419 482 36,000  Level Denver Center
Sat 12:18:08 AM 39.7781 -104.9892 252° West 415 478 36,000  Level Denver Center
Sat 12:19:10 AM 39.7361 -105.1594 252° West 422 486 36,000  Level Denver Center
Sat 12:20:11 AM 39.6997 -105.3042 252° West 419 482 36,000  Level Denver Center
Sat 12:21:12 AM 39.6633 -105.4508 252° West 425 489 36,000  Level Denver Center
Sat 12:22:13 AM 39.6264 -105.5931 251° West 413 475 36,000  Level Denver Center
Sat 12:23:14 AM 39.5897 -105.7361 252° West 411 473 36,000  Level Denver Center
Sat 12:24:15 AM 39.5539 -105.8822 252° West 415 478 36,000  Level Denver Center
Sat 12:25:16 AM 39.5161 -106.0289 252° West 426 490 36,000 49 Level Denver Center
Sat 12:26:17 AM 39.4761 -106.1861 252° West 433 498 36,100  Climbing Denver Center
Sat 12:27:18 AM 39.4444 -106.3086 252° West 432 497 36,000 -49 Descending Denver Center
Sat 12:28:19 AM 39.3981 -106.4872 251° West 425 489 36,000  Level Denver Center
Sat 12:29:20 AM 39.3619 -106.6239 251° West 421 484 36,000  Level Denver Center
Sat 12:30:21 AM 39.3239 -106.7633 251° West 426 490 36,000  Level Denver Center
Sat 12:31:22 AM 39.2825 -106.9253 252° West 424 488 36,000  Level Denver Center
Sat 12:32:23 AM 39.2464 -107.0611 251° West 420 483 36,000  Level Denver Center
Sat 12:33:24 AM 39.2086 -107.1989 251° West 423 487 36,000  Level Denver Center
Sat 12:34:25 AM 39.1642 -107.3600 250° West 425 489 36,000  Level Denver Center
Sat 12:35:26 AM 39.1267 -107.4978 251° West 426 490 36,000  Level Denver Center
Sat 12:36:27 AM 39.0886 -107.6336 250° West 423 487 36,000  Level Denver Center
Sat 12:37:28 AM 39.0453 -107.7950 251° West 425 489 36,000  Level Denver Center
Sat 12:38:29 AM 39.0072 -107.9331 251° West 428 493 36,000  Level Denver Center
Sat 12:39:30 AM 38.9697 -108.0697 251° West 424 488 36,000  Level Denver Center
Sat 12:40:31 AM 38.9242 -108.2308 250° West 427 491 36,000  Level Denver Center
Sat 12:41:32 AM 38.8856 -108.3672 250° West 424 488 36,000  Level Denver Center
Sat 12:42:32 AM 38.8472 -108.5042 250° West 424 488 36,000  Level Denver Center
Sat 12:43:33 AM 38.8014 -108.6644 250° West 426 490 36,000  Level Denver Center
Sat 12:44:34 AM 38.7628 -108.8017 250° West 428 493 36,000  Level Denver Center
Sat 12:45:35 AM 38.7225 -108.9397 250° West 428 493 36,000  Level Denver Center
Sat 12:46:36 AM 38.6764 -109.1017 250° West 433 498 36,000  Level Denver Center
Sat 12:47:36 AM 38.6350 -109.2394 249° West 432 497 36,000  Level Denver Center
Sat 12:48:37 AM 38.5956 -109.3775 250° West 431 496 36,000  Level Denver Center
Sat 12:49:38 AM 38.5486 -109.5375 249° West 430 495 36,000  Level Denver Center
Sat 12:50:39 AM 38.5075 -109.6742 249° West 431 496 36,000  Level Denver Center
Sat 12:51:39 AM 38.4550 -109.8061 243° Southwest 432 497 36,000  Level Denver Center
Sat 12:52:40 AM 38.3922 -109.9589 242° Southwest 434 499 36,000  Level Denver Center
Sat 12:53:41 AM 38.3369 -110.0889 242° Southwest 435 501 36,000  Level Denver Center
Sat 12:54:42 AM 38.2822 -110.2214 242° Southwest 440 506 36,000  Level Denver Center
Sat 12:55:42 AM 38.2178 -110.3761 242° Southwest 443 510 36,000  Level Denver Center
Sat 12:56:43 AM 38.1617 -110.5089 242° Southwest 445 512 36,000  Level Denver Center
Sat 12:57:25 AM 38.1244 -110.5986 242° Southwest 446 513 36,000  Level Salt Lake Center
Sat 12:57:44 AM 38.1058 -110.6431 242° Southwest 447 514 36,000  Level Denver Center
Sat 12:58:44 AM 38.0486 -110.7778 242° Southwest 451 519 36,000  Level Denver Center
Sat 12:59:45 AM 37.9886 -110.9222 242° Southwest 454 522 36,000  Level Denver Center
Sat 01:00:46 AM 37.9289 -111.0628 242° Southwest 454 522 36,000  Level Denver Center
Sat 01:01:28 AM 37.8794 -111.1756 241° Southwest 456 525 36,000  Level Salt Lake Center
Sat 01:01:46 AM 37.8689 -111.2039 245° Southwest 455 524 36,000  Level Denver Center
Sat 01:02:29 AM 37.8192 -111.3169 241° Southwest 457 526 36,000  Level Salt Lake Center
Sat 01:03:30 AM 37.7592 -111.4600 242° Southwest 460 529 36,000  Level Salt Lake Center
Sat 01:04:31 AM 37.6978 -111.6008 241° Southwest 459 528 36,000  Level Salt Lake Center
Sat 01:05:32 AM 37.6350 -111.7425 241° Southwest 461 531 36,000  Level Salt Lake Center
Sat 01:06:13 AM 37.5872 -111.8536 242° Southwest 456 525 36,000  Level Denver Center
Sat 01:06:33 AM 37.5739 -111.8819 239° Southwest 456 525 36,000  Level Salt Lake Center
Sat 01:07:34 AM 37.5119 -112.0225 241° Southwest 458 527 36,000  Level Salt Lake Center
Sat 01:08:35 AM 37.4503 -112.1619 241° Southwest 455 524 36,000  Level Salt Lake Center
Sat 01:09:36 AM 37.3881 -112.3031 241° Southwest 458 527 36,000 -397 Level Salt Lake Center
Sat 01:10:36 AM 37.3258 -112.4419 241° Southwest 455 524 35,200 -893 Descending Salt Lake Center
Sat 01:11:37 AM 37.2622 -112.5836 241° Southwest 459 528 34,200 -984 Descending Salt Lake Center
Sat 01:12:38 AM 37.1983 -112.7275 241° Southwest 466 536 33,200 -984 Descending Salt Lake Center
Sat 01:13:39 AM 37.1331 -112.8711 240° Southwest 469 540 32,200 -984 Descending Salt Lake Center
Sat 01:14:40 AM 37.0675 -113.0150 240° Southwest 472 543 31,200 -1,082 Descending Salt Lake Center
Sat 01:15:41 AM 36.9911 -113.1850 241° Southwest 468 539 30,000 -1,041 Descending Salt Lake Center
Sat 01:16:41 AM 36.9286 -113.3206 240° Southwest 455 524 29,100 -942 Descending Salt Lake Center
Sat 01:17:42 AM 36.8667 -113.4547 240° Southwest 448 516 28,100 -934 Descending Salt Lake Center
Sat 01:18:43 AM 36.8075 -113.5839 240° Southwest 434 499 27,200 -1,082 Descending Salt Lake Center
Sat 01:19:44 AM 36.7483 -113.7097 240° Southwest 424 488 25,900 -1,686 Descending Salt Lake Center
Sat 01:20:44 AM 36.6931 -113.8328 241° Southwest 413 475 23,800 -1,970 Descending Salt Lake Center
Sat 01:21:58 AM 36.6278 -113.9689 239° Southwest 387 445 21,500 -1,941 Descending Los Angeles Center
Sat 01:23:00 AM 36.5758 -114.0797 240° Southwest 373 429 19,400 -2,147 Descending Los Angeles Center
Sat 01:23:47 AM 36.5342 -114.1775 242° Southwest 367 422 17,600 -2,286 Descending Los Angeles Center
Sat 01:24:24 AM 36.5086 -114.2372 242° Southwest 343 395 16,200 -1,920 Descending Los Angeles Center
Sat 01:25:02 AM 36.4781 -114.2958 237° Southwest 323 372 15,200 -1,612 Descending Los Angeles Center
Sat 01:25:31 AM 36.4606 -114.3422 245° Southwest 302 348 14,400 -1,869 Descending Los Angeles Center
Sat 01:26:03 AM 36.4375 -114.3864 237° Southwest 304 350 13,300 -1,745 Descending Los Angeles Center
Sat 01:26:26 AM 36.4242 -114.4217 245° Southwest 303 349 12,800 -1,000 Descending Los Angeles Center
Sat 01:27:21 AM 36.3817 -114.5031 237° Southwest 300 345 12,000 -480 Descending Los Angeles Center
Sat 01:28:06 AM 36.3483 -114.5592 234° Southwest 292 336 12,000 -566 Level Los Angeles Center
Sat 01:29:07 AM 36.3092 -114.6300 236° Southwest 255 293 11,000 -1,082 Descending Los Angeles Center
Sat 01:30:08 AM 36.2733 -114.6992 237° Southwest 241 277 9,800 -1,180 Descending Los Angeles Center
Sat 01:31:09 AM 36.2353 -114.7669 235° Southwest 239 275 8,600 -885 Descending Los Angeles Center
Sat 01:32:10 AM 36.2019 -114.8292 236° Southwest 221 254 8,000 -1,024 Descending Los Angeles Center
Sat 01:33:12 AM 36.1725 -114.8831 236° Southwest 197 227 6,500 -1,024 Descending Los Angeles Center
Sat 01:34:13 AM 36.1422 -114.9378 236° Southwest 192 221 5,900 -639 Descending Los Angeles Center
Sat 01:35:14 AM 36.1344 -114.9981 261° West 188 216 5,200 -934 Descending Los Angeles Center
Sat 01:36:15 AM 36.1397 -115.0606 276° West 187 215 4,000 -1,131 Descending Los Angeles Center
Sat 01:37:16 AM 36.1303 -115.1292 260° West 156 180 2,900 -934 Descending Los Angeles Center
Sat 01:38:17 AM 36.0997 -115.1578 217° Southwest 139 160 2,100 -787 Descending Los Angeles Center
Sat 01:40:00 AM 36.0801 -115.1523 219° Southwest  Level Estimated

Login

Don't have an account? Register now (free) for customized features, flight alerts, and more!